Time;durP1;ratioP1;P1;durP2;ratioP2;P2;SDS_P1;SDS_P2;PMS_P1;PMS_P2;Temp;Humidity;BMP_temperature;BMP_pressure;BME280_temperature;BME280_humidity;BME280_pressure;Samples;Min_cycle;Max_cycle;Signal;HPM_P1;HPM_P2
2023/09/26 00:02:25;;;;;;;16.43;4.23;;;;;;;22.83;54.91;99900.88;4841718;29;20101;-44
2023/09/26 00:04:51;;;;;;;10.07;4.38;;;;;;;22.99;54.57;99896.94;4841691;29;20306;-45
2023/09/26 00:07:17;;;;;;;10.07;4.72;;;;;;;22.97;54.57;99893.69;4841635;29;20119;-47
2023/09/26 00:09:43;;;;;;;9.77;4.15;;;;;;;23.01;54.45;99902.09;4841764;29;20517;-43
2023/09/26 00:12:08;;;;;;;11.35;4.45;;;;;;;22.98;54.50;99900.75;4842177;29;20037;-46
2023/09/26 00:14:34;;;;;;;9.43;4.07;;;;;;;22.92;54.79;99907.28;4842338;29;20101;-50
2023/09/26 00:16:59;;;;;;;8.85;4.40;;;;;;;22.89;54.87;99905.16;4842122;29;20033;-44
2023/09/26 00:19:25;;;;;;;14.90;4.65;;;;;;;22.82;55.12;99900.03;4842190;29;20033;-42
2023/09/26 00:21:50;;;;;;;10.45;4.25;;;;;;;22.87;55.11;99910.06;4842096;29;20041;-44
2023/09/26 00:24:16;;;;;;;13.85;4.30;;;;;;;22.90;55.14;99905.97;4842020;29;20116;-42
2023/09/26 00:26:41;;;;;;;12.10;4.60;;;;;;;22.76;55.79;99901.16;4842056;29;20033;-43
2023/09/26 00:29:07;;;;;;;15.10;4.55;;;;;;;22.88;55.66;99906.25;4842017;29;20040;-43
2023/09/26 00:31:32;;;;;;;9.50;4.60;;;;;;;22.98;55.35;99905.34;4841051;29;20085;-46
2023/09/26 00:33:58;;;;;;;12.60;4.72;;;;;;;22.81;55.78;99906.56;4841961;29;20170;-44
2023/09/26 00:36:23;;;;;;;10.32;4.38;;;;;;;22.76;55.93;99917.44;4841936;29;20074;-42
2023/09/26 00:38:49;;;;;;;9.18;4.57;;;;;;;22.86;55.72;99911.13;4841770;29;20547;-43
2023/09/26 00:41:14;;;;;;;10.65;5.40;;;;;;;22.79;56.01;99907.91;4841881;29;20042;-44
2023/09/26 00:43:39;;;;;;;19.27;7.93;;;;;;;22.69;56.29;99905.28;4841611;29;20025;-44
2023/09/26 00:46:05;;;;;;;19.58;9.82;;;;;;;22.41;57.12;99910.31;4842024;29;20037;-45
2023/09/26 00:48:32;;;;;;;18.58;8.75;;;;;;;22.51;56.91;99918.41;4841657;29;20033;-45
2023/09/26 00:50:58;;;;;;;18.35;8.50;;;;;;;22.19;57.99;99918.75;4841598;29;20033;-46
2023/09/26 00:53:26;;;;;;;17.42;8.75;;;;;;;22.12;58.15;99902.78;4841464;29;20133;-43
2023/09/26 00:55:55;;;;;;;23.70;10.20;;;;;;;22.01;58.55;99917.47;4841966;29;20116;-44
2023/09/26 00:58:25;;;;;;;22.60;9.25;;;;;;;22.15;57.96;99921.22;4841853;29;20033;-47
2023/09/26 01:00:51;;;;;;;20.73;9.70;;;;;;;21.95;58.81;99911.25;4841549;29;20058;-44
2023/09/26 01:03:17;;;;;;;18.83;9.43;;;;;;;21.98;58.77;99909.88;4841418;29;20463;-43
2023/09/26 01:05:42;;;;;;;26.58;10.02;;;;;;;21.98;58.82;99907.16;4841361;29;20034;-40
2023/09/26 01:08:08;;;;;;;22.67;11.18;;;;;;;21.85;58.99;99911.25;4841750;29;20160;-45
2023/09/26 01:10:35;;;;;;;27.52;11.35;;;;;;;21.73;59.90;99914.28;4842035;29;20034;-45
2023/09/26 01:13:02;;;;;;;29.17;12.68;;;;;;;21.71;59.25;99908.31;4841851;29;20472;-45
2023/09/26 01:15:33;;;;;;;30.63;11.73;;;;;;;21.67;59.86;99905.34;4841981;29;20071;-46
2023/09/26 01:17:58;;;;;;;27.63;13.13;;;;;;;21.59;59.91;99907.78;4841694;29;20029;-47
2023/09/26 01:20:24;;;;;;;32.05;13.55;;;;;;;21.57;59.89;99907.25;4841546;29;20055;-45
2023/09/26 01:22:50;;;;;;;42.35;16.65;;;;;;;21.58;59.58;99912.38;4841916;29;20042;-45
2023/09/26 01:25:16;;;;;;;39.08;16.55;;;;;;;21.38;60.40;99915.06;4841798;29;20527;-42
2023/09/26 01:27:42;;;;;;;32.03;14.82;;;;;;;21.31;60.80;99909.13;4841671;29;20487;-44
2023/09/26 01:30:08;;;;;;;25.00;10.23;;;;;;;21.34;60.21;99914.78;4841790;29;20038;-43
2023/09/26 01:32:34;;;;;;;32.60;10.18;;;;;;;21.21;61.14;99912.63;4841799;29;20113;-44
2023/09/26 01:34:59;;;;;;;25.85;10.77;;;;;;;21.27;60.91;99915.06;4841417;29;20034;-42
2023/09/26 01:37:24;;;;;;;15.20;6.28;;;;;;;21.26;60.63;99912.63;4841455;29;20053;-46
2023/09/26 01:39:50;;;;;;;12.25;5.78;;;;;;;21.27;60.42;99914.28;4841400;29;20030;-44
2023/09/26 01:42:15;;;;;;;13.45;5.45;;;;;;;21.25;60.49;99914.53;4841012;29;20034;-44
2023/09/26 01:44:41;;;;;;;13.48;5.15;;;;;;;21.29;59.80;99917.53;4841485;29;20033;-47
2023/09/26 01:47:06;;;;;;;12.70;4.95;;;;;;;21.14;60.42;99920.22;4841465;29;20033;-44
2023/09/26 01:49:34;;;;;;;9.52;5.22;;;;;;;21.14;60.51;99918.31;4841019;29;20064;-44
2023/09/26 01:51:59;;;;;;;10.35;4.93;;;;;;;21.09;60.63;99912.88;4841307;29;20034;-45
2023/09/26 01:54:25;;;;;;;11.30;5.18;;;;;;;21.02;60.74;99917.78;4841288;29;20046;-43
2023/09/26 01:56:50;;;;;;;8.02;4.65;;;;;;;21.11;59.67;99912.63;4840930;29;20449;-47
2023/09/26 01:59:16;;;;;;;6.15;4.43;;;;;;;21.13;59.57;99913.16;4841075;29;20123;-46
2023/09/26 02:01:41;;;;;;;9.63;4.32;;;;;;;21.17;59.11;99908.84;4840933;29;20439;-44
2023/09/26 02:04:06;;;;;;;6.57;4.38;;;;;;;21.04;59.72;99902.09;4841270;29;20077;-44
2023/09/26 02:06:32;;;;;;;10.05;4.63;;;;;;;20.92;60.43;99910.44;4840912;29;20026;-44
2023/09/26 02:08:57;;;;;;;10.60;4.90;;;;;;;20.96;60.75;99910.72;4841117;29;20021;-46
2023/09/26 02:11:22;;;;;;;8.52;5.18;;;;;;;20.81;61.31;99911.47;4841148;29;20053;-44
2023/09/26 02:13:48;;;;;;;10.68;4.72;;;;;;;20.93;60.90;99917.47;4840826;29;20381;-46
2023/09/26 02:16:13;;;;;;;14.15;5.25;;;;;;;21.32;59.41;99916.16;4841061;29;20045;-46
2023/09/26 02:18:39;;;;;;;10.57;4.90;;;;;;;21.85;57.28;99924.81;4840789;29;20082;-44
2023/09/26 02:21:04;;;;;;;14.18;5.50;;;;;;;22.18;56.86;99923.38;4839596;29;20151;-44
2023/09/26 02:23:30;;;;;;;14.05;5.35;;;;;;;22.24;56.63;99918.75;4840918;29;20547;-42
2023/09/26 02:25:55;;;;;;;11.60;5.57;;;;;;;22.33;56.54;99919.84;4840604;29;20044;-44
2023/09/26 02:28:21;;;;;;;12.30;5.65;;;;;;;22.38;56.16;99924.41;4841167;29;20034;-47
2023/09/26 02:30:46;;;;;;;13.18;5.65;;;;;;;22.33;56.38;99914.41;4840517;29;20460;-44
2023/09/26 02:33:12;;;;;;;10.10;5.53;;;;;;;22.48;55.97;99912.72;4841025;29;20032;-47
2023/09/26 02:35:37;;;;;;;10.27;5.65;;;;;;;22.55;55.86;99905.91;4840731;29;20026;-44
2023/09/26 02:38:03;;;;;;;11.75;5.40;;;;;;;22.57;55.83;99900.19;4840713;29;20105;-46
2023/09/26 02:40:28;;;;;;;12.38;5.85;;;;;;;22.67;55.40;99910.19;4841109;29;20045;-42
2023/09/26 02:42:54;;;;;;;8.80;5.20;;;;;;;22.68;55.53;99904.47;4840980;29;20101;-42
2023/09/26 02:45:19;;;;;;;12.77;5.43;;;;;;;22.86;54.77;99916.56;4840791;29;20105;-44
2023/09/26 02:47:45;;;;;;;18.73;5.50;;;;;;;22.98;54.52;99913.50;4840657;29;20056;-44
2023/09/26 02:50:11;;;;;;;11.40;5.40;;;;;;;22.89;54.59;99916.00;4840078;29;20113;-44
2023/09/26 02:52:39;;;;;;;10.77;5.00;;;;;;;22.87;54.89;99906.53;4840472;29;20069;-43
2023/09/26 02:55:07;;;;;;;10.10;5.30;;;;;;;22.94;54.97;99917.88;4842636;29;20117;-45
2023/09/26 02:57:33;;;;;;;10.02;5.25;;;;;;;22.99;55.03;99920.56;4844042;29;20033;-42
2023/09/26 02:59:59;;;;;;;8.63;5.07;;;;;;;23.01;54.92;99916.47;4844370;29;20128;-47
2023/09/26 03:02:24;;;;;;;12.05;5.38;;;;;;;22.80;55.83;99925.84;4844097;29;20026;-45
2023/09/26 03:04:50;;;;;;;13.32;4.88;;;;;;;22.93;55.49;99924.41;4844388;29;20026;-44
2023/09/26 03:07:15;;;;;;;11.07;5.25;;;;;;;22.97;55.36;99917.31;4843403;29;20518;-48
2023/09/26 03:09:41;;;;;;;15.30;9.07;;;;;;;22.95;55.55;99923.03;4843692;29;20053;-45
2023/09/26 03:12:06;;;;;;;19.60;12.77;;;;;;;22.75;55.80;99920.44;4843014;29;20034;-45
2023/09/26 03:14:32;;;;;;;14.00;5.65;;;;;;;22.81;55.33;99924.75;4842967;29;20501;-45
2023/09/26 03:16:58;;;;;;;13.30;5.25;;;;;;;22.50;55.98;99927.59;4853666;29;20094;-46
2023/09/26 03:19:23;;;;;;;7.57;5.00;;;;;;;22.16;56.80;99925.56;4860756;29;20040;-47
2023/09/26 03:21:50;;;;;;;9.68;5.10;;;;;;;21.66;57.51;99928.06;4860690;29;20029;-44
2023/09/26 03:24:16;;;;;;;9.65;4.80;;;;;;;21.64;57.92;99926.72;4860747;29;20029;-46
2023/09/26 03:26:42;;;;;;;9.20;4.97;;;;;;;21.52;57.60;99920.81;4860520;29;20025;-47
2023/09/26 03:29:07;;;;;;;8.43;4.85;;;;;;;21.41;57.83;99928.88;4857631;29;20037;-46
2023/09/26 03:31:34;;;;;;;9.85;5.13;;;;;;;21.48;57.22;99929.44;4860541;29;20029;-43
2023/09/26 03:33:59;;;;;;;13.50;5.18;;;;;;;21.22;57.83;99925.09;4854596;29;20418;-44
2023/09/26 03:36:25;;;;;;;11.18;5.15;;;;;;;21.00;58.40;99923.44;4860300;29;20041;-43
2023/09/26 03:38:50;;;;;;;9.68;5.18;;;;;;;20.92;58.87;99932.06;4857671;29;20034;-44
2023/09/26 03:41:16;;;;;;;10.93;4.82;;;;;;;21.14;58.63;99925.63;4842487;29;20043;-43
2023/09/26 03:43:41;;;;;;;10.45;5.00;;;;;;;21.36;58.20;99928.91;4841733;29;20408;-44
2023/09/26 03:46:08;;;;;;;10.73;5.85;;;;;;;21.44;57.50;99935.69;4841632;29;20116;-43
2023/09/26 03:48:35;;;;;;;12.90;5.35;;;;;;;21.17;58.33;99930.47;4841500;29;20570;-47
2023/09/26 03:51:11;;;;;;;11.18;5.07;;;;;;;21.37;57.91;99929.69;4841361;29;20038;-44
2023/09/26 03:53:37;;;;;;;7.90;4.60;;;;;;;21.42;57.61;99935.94;4841376;29;20033;-43
2023/09/26 03:56:03;;;;;;;11.07;5.10;;;;;;;21.19;58.28;99928.31;4841350;29;20113;-44
2023/09/26 03:58:29;;;;;;;6.43;4.90;;;;;;;21.29;58.22;99934.56;4841191;29;20112;-46
2023/09/26 04:00:54;;;;;;;9.65;5.05;;;;;;;21.37;57.54;99932.41;4841536;29;20090;-43
2023/09/26 04:03:20;;;;;;;11.85;5.85;;;;;;;21.47;57.32;99937.84;4841543;29;20476;-46
2023/09/26 04:05:48;;;;;;;15.23;6.18;;;;;;;21.39;57.64;99936.44;4841513;29;20022;-45
2023/09/26 04:08:14;;;;;;;12.20;5.70;;;;;;;21.39;57.83;99932.94;4841650;29;20046;-43
2023/09/26 04:10:40;;;;;;;12.77;5.45;;;;;;;21.40;58.23;99948.91;4841398;29;20044;-44
2023/09/26 04:13:05;;;;;;;15.18;5.88;;;;;;;21.80;58.78;99946.47;4841166;29;20090;-46
2023/09/26 04:15:31;;;;;;;11.10;6.80;;;;;;;21.73;62.81;99945.97;4841218;29;20038;-46
2023/09/26 04:17:56;;;;;;;13.45;6.30;;;;;;;22.31;58.77;99949.09;4841239;29;20037;-42
2023/09/26 04:20:23;;;;;;;11.57;6.43;;;;;;;22.50;56.33;99949.28;4840902;29;20061;-43
2023/09/26 04:22:48;;;;;;;18.00;10.98;;;;;;;21.97;58.09;99952.44;4841215;29;20076;-43
2023/09/26 04:25:14;;;;;;;20.35;8.15;;;;;;;21.78;57.63;99957.59;4841227;29;20504;-41
2023/09/26 04:27:40;;;;;;;13.43;6.00;;;;;;;21.54;58.58;99957.34;4841165;29;20507;-43
2023/09/26 04:30:08;;;;;;;10.85;5.82;;;;;;;21.52;58.13;99964.13;4841002;29;20528;-41
2023/09/26 04:32:34;;;;;;;11.45;5.90;;;;;;;21.15;59.71;99955.13;4841731;29;20423;-48
2023/09/26 04:34:59;;;;;;;11.85;6.00;;;;;;;21.53;58.33;99961.09;4841871;29;20506;-45
2023/09/26 04:37:25;;;;;;;10.40;5.80;;;;;;;21.57;58.21;99961.38;4842249;29;20042;-45
2023/09/26 04:39:50;;;;;;;11.43;5.93;;;;;;;21.54;58.51;99956.53;4841947;29;20033;-43
2023/09/26 04:42:15;;;;;;;11.70;5.93;;;;;;;21.44;58.89;99958.16;4841878;29;20034;-44
2023/09/26 04:44:41;;;;;;;18.00;7.03;;;;;;;21.54;58.84;99953.81;4841339;29;20392;-40
2023/09/26 04:47:06;;;;;;;14.15;6.60;;;;;;;21.17;59.79;99957.53;4842092;29;20453;-43
2023/09/26 04:49:35;;;;;;;13.07;6.20;;;;;;;21.55;58.79;99958.13;4843592;29;20467;-44
2023/09/26 04:52:01;;;;;;;10.82;6.50;;;;;;;21.64;58.28;99959.22;4848649;29;20090;-43
2023/09/26 04:54:27;;;;;;;13.48;6.13;;;;;;;21.54;59.03;99961.94;4859029;29;20040;-44
2023/09/26 04:56:52;;;;;;;11.77;6.22;;;;;;;21.47;59.43;99968.41;4859784;29;20033;-43
2023/09/26 04:59:18;;;;;;;13.38;6.30;;;;;;;21.25;60.06;99965.94;4859936;29;20037;-42
2023/09/26 05:01:45;;;;;;;41.00;27.42;;;;;;;21.53;59.21;99973.84;4856556;29;20471;-44
2023/09/26 05:04:10;;;;;;;46.25;28.02;;;;;;;21.75;58.59;99971.69;4859871;29;20041;-43
2023/09/26 05:06:36;;;;;;;17.48;10.35;;;;;;;21.95;57.86;99972.72;4852761;29;20030;-43
2023/09/26 05:09:01;;;;;;;12.55;7.22;;;;;;;21.78;58.62;99973.84;4848772;29;20030;-45
2023/09/26 05:11:27;;;;;;;11.25;6.05;;;;;;;21.49;59.35;99976.28;4850836;29;20466;-43
2023/09/26 05:13:53;;;;;;;15.57;6.30;;;;;;;21.50;59.54;99969.78;4858860;29;20034;-41
2023/09/26 05:16:18;;;;;;;9.50;6.18;;;;;;;22.20;62.24;99956.44;4859468;29;20025;-44
2023/09/26 05:18:44;;;;;;;11.95;5.68;;;;;;;22.70;56.69;99972.00;4859380;29;20029;-41
2023/09/26 05:21:09;;;;;;;9.95;6.03;;;;;;;22.72;55.49;99975.25;4860134;29;20022;-43
2023/09/26 05:23:35;;;;;;;11.23;5.63;;;;;;;22.27;56.62;99975.13;4860066;29;20479;-44
2023/09/26 05:26:08;;;;;;;9.90;5.68;;;;;;;22.38;56.69;99981.34;4859487;29;20029;-41
2023/09/26 05:28:33;;;;;;;9.15;5.35;;;;;;;22.50;56.07;99989.16;4859250;29;20475;-41
2023/09/26 05:30:59;;;;;;;11.57;5.78;;;;;;;22.55;56.14;99981.81;4859607;29;20049;-41
2023/09/26 05:33:24;;;;;;;9.57;5.28;;;;;;;22.69;55.84;99983.94;4859443;29;20029;-44
2023/09/26 05:35:49;;;;;;;12.23;5.97;;;;;;;22.75;55.71;99980.94;4859306;29;20030;-41
2023/09/26 05:38:15;;;;;;;8.20;5.30;;;;;;;22.44;55.85;99981.03;4859381;29;20097;-42
2023/09/26 05:40:40;;;;;;;10.40;4.97;;;;;;;22.82;55.29;99986.84;4858927;29;20021;-42
2023/09/26 05:43:06;;;;;;;9.75;5.18;;;;;;;23.20;53.98;99983.69;4859495;29;20029;-43
2023/09/26 05:45:31;;;;;;;8.48;4.93;;;;;;;23.44;53.28;99986.50;4859445;29;20032;-44
2023/09/26 05:47:57;;;;;;;9.98;5.68;;;;;;;23.59;53.04;99986.41;4859425;29;20026;-44
2023/09/26 05:50:22;;;;;;;11.02;5.57;;;;;;;23.73;52.56;99977.59;4858948;29;20030;-41
2023/09/26 05:52:47;;;;;;;10.52;5.43;;;;;;;23.77;52.46;99987.59;4859356;29;20029;-44
2023/09/26 05:55:13;;;;;;;11.90;5.78;;;;;;;23.61;52.77;99980.69;4858915;29;20025;-42
2023/09/26 05:57:40;;;;;;;15.70;5.82;;;;;;;23.75;52.34;99984.34;4858888;29;20041;-44
2023/09/26 06:00:12;;;;;;;16.65;6.22;;;;;;;23.96;52.26;99985.00;4859174;29;20511;-42
2023/09/26 06:02:37;;;;;;;12.70;5.50;;;;;;;24.75;51.20;99992.03;4859344;29;20037;-42
2023/09/26 06:05:03;;;;;;;10.27;5.32;;;;;;;25.41;49.26;99990.31;4859252;29;20028;-42
2023/09/26 06:07:28;;;;;;;12.80;5.53;;;;;;;25.88;48.39;99990.38;4859111;29;20021;-43
2023/09/26 06:09:53;;;;;;;9.70;5.80;;;;;;;25.50;47.52;99985.00;4858744;29;20121;-43
2023/09/26 06:12:19;;;;;;;16.80;5.30;;;;;;;25.71;47.79;99986.28;4858507;29;20105;-42
2023/09/26 06:14:47;;;;;;;12.60;5.45;;;;;;;25.20;48.46;99989.78;4858869;29;20089;-46
2023/09/26 06:17:12;;;;;;;12.18;5.13;;;;;;;25.27;48.96;99989.44;4858951;29;20467;-42
2023/09/26 06:19:39;;;;;;;9.10;5.32;;;;;;;25.52;46.88;99993.69;4858922;29;20109;-43
2023/09/26 06:22:04;;;;;;;11.30;4.70;;;;;;;25.66;46.77;99994.53;4858580;29;20026;-43
2023/09/26 06:24:30;;;;;;;7.40;4.70;;;;;;;26.14;46.59;99994.28;4858962;29;20028;-42
2023/09/26 06:26:55;;;;;;;12.68;5.10;;;;;;;26.47;45.10;99998.84;4857765;29;20036;-42
2023/09/26 06:29:21;;;;;;;11.75;5.07;;;;;;;26.80;44.77;100010.44;4857991;29;20034;-42
2023/09/26 06:31:46;;;;;;;12.82;4.75;;;;;;;26.88;44.12;99998.81;4857790;29;20029;-42
2023/09/26 06:34:11;;;;;;;8.50;4.90;;;;;;;27.34;43.79;100001.63;4857812;29;20033;-43
2023/09/26 06:36:37;;;;;;;11.70;5.00;;;;;;;27.05;43.39;100000.88;4857142;29;20108;-45
2023/09/26 06:39:03;;;;;;;11.90;4.90;;;;;;;27.24;43.30;100002.66;4857944;29;20399;-45
2023/09/26 06:41:28;;;;;;;8.80;4.50;;;;;;;27.64;43.04;99997.38;4857652;29;20108;-46
2023/09/26 06:43:53;;;;;;;9.35;5.13;;;;;;;28.19;42.06;100004.44;4857971;29;20022;-46
2023/09/26 06:46:19;;;;;;;11.60;4.70;;;;;;;28.44;41.38;100008.41;4857609;29;20182;-43
2023/09/26 06:48:44;;;;;;;8.13;4.68;;;;;;;28.94;40.53;100001.78;4857822;29;20030;-44
2023/09/26 06:51:11;;;;;;;12.25;4.97;;;;;;;29.00;39.83;100006.00;4840070;29;20030;-46
2023/09/26 06:53:37;;;;;;;10.32;5.70;;;;;;;29.61;39.13;100008.75;4839167;29;20037;-41
2023/09/26 06:56:07;;;;;;;11.80;4.72;;;;;;;29.82;38.77;100003.41;4839332;29;20048;-46
2023/09/26 06:58:34;;;;;;;10.52;4.72;;;;;;;30.38;37.69;100008.91;4838751;29;20034;-43
2023/09/26 07:01:00;;;;;;;11.70;4.97;;;;;;;30.72;37.22;100013.38;4847702;29;20050;-44
2023/09/26 07:03:29;;;;;;;9.73;4.50;;;;;;;31.24;36.37;100016.94;4857456;29;20036;-42
2023/09/26 07:05:55;;;;;;;7.63;4.82;;;;;;;31.80;35.38;100013.88;4857753;29;20028;-43
2023/09/26 07:08:21;;;;;;;11.95;4.75;;;;;;;32.10;34.47;100009.00;4857887;29;20053;-42
2023/09/26 07:10:46;;;;;;;8.50;4.32;;;;;;;32.22;34.15;100011.78;4857103;29;20022;-42
2023/09/26 07:13:15;;;;;;;11.15;4.70;;;;;;;32.28;33.86;100010.41;4857301;29;20045;-44
2023/09/26 07:15:41;;;;;;;9.93;4.47;;;;;;;32.07;34.16;100007.75;4857256;29;20060;-43
2023/09/26 07:18:10;;;;;;;11.88;4.45;;;;;;;32.11;33.69;100010.63;4857377;29;20030;-42
2023/09/26 07:20:38;;;;;;;13.50;4.40;;;;;;;32.04;33.65;100002.13;4858279;29;20037;-42
2023/09/26 07:23:03;;;;;;;10.03;3.97;;;;;;;31.73;33.65;99998.72;4857217;29;20025;-43
2023/09/26 07:25:29;;;;;;;12.55;5.03;;;;;;;31.54;33.99;100007.47;4840661;29;20178;-44
2023/09/26 07:27:55;;;;;;;11.75;4.68;;;;;;;31.08;34.72;100008.50;4840722;29;20037;-42
2023/09/26 07:30:21;;;;;;;7.90;4.38;;;;;;;31.08;34.52;100006.56;4840195;29;20032;-43
2023/09/26 07:32:46;;;;;;;7.72;4.20;;;;;;;30.94;35.00;100009.56;4840226;29;20029;-44
2023/09/26 07:35:12;;;;;;;9.73;4.32;;;;;;;30.98;35.15;100015.22;4840084;29;20391;-44
2023/09/26 07:37:37;;;;;;;10.40;4.20;;;;;;;31.26;34.22;100017.41;4844397;29;20108;-43
2023/09/26 07:40:05;;;;;;;10.10;4.25;;;;;;;31.40;33.69;100009.69;4849164;29;20178;-44
2023/09/26 07:42:32;;;;;;;12.43;5.17;;;;;;;31.05;34.15;100014.66;4853171;29;20033;-45
2023/09/26 07:44:58;;;;;;;9.60;4.43;;;;;;;30.65;34.44;100018.59;4852069;29;20261;-43
2023/09/26 07:47:24;;;;;;;11.88;4.15;;;;;;;30.78;34.18;99998.31;4851157;29;20033;-45
2023/09/26 07:49:49;;;;;;;10.23;4.30;;;;;;;31.17;33.91;100021.03;4853172;29;20451;-42
2023/09/26 07:52:15;;;;;;;9.48;4.38;;;;;;;31.46;33.67;100021.28;4852361;29;20033;-47
2023/09/26 07:54:40;;;;;;;10.85;4.20;;;;;;;31.93;33.73;100016.31;4851979;29;20032;-44
2023/09/26 07:57:06;;;;;;;8.30;4.13;;;;;;;32.28;33.22;99999.41;4850951;29;20044;-44
2023/09/26 07:59:31;;;;;;;11.02;3.92;;;;;;;32.70;32.33;100003.88;4852956;29;20364;-43
2023/09/26 08:01:57;;;;;;;13.35;4.40;;;;;;;33.15;32.23;100002.06;4850422;29;20029;-44
2023/09/26 08:04:23;;;;;;;13.93;4.30;;;;;;;33.07;32.21;100003.78;4852547;29;20026;-45
2023/09/26 08:06:48;;;;;;;13.77;4.30;;;;;;;33.03;32.50;100000.13;4850776;29;20399;-45
2023/09/26 08:09:15;;;;;;;11.70;4.32;;;;;;;33.52;31.46;99999.19;4852428;29;20037;-44
2023/09/26 08:11:41;;;;;;;11.00;3.90;;;;;;;33.64;30.59;99999.97;4845197;29;20133;-42
2023/09/26 08:14:07;;;;;;;12.50;4.00;;;;;;;33.46;30.26;100004.16;4842501;29;20034;-44
2023/09/26 08:16:33;;;;;;;9.88;4.35;;;;;;;32.06;32.35;99999.84;4843077;29;20038;-43
2023/09/26 08:18:58;;;;;;;10.43;3.55;;;;;;;31.74;33.23;100000.31;4843015;29;20124;-44
2023/09/26 08:21:26;;;;;;;12.85;4.13;;;;;;;31.76;32.78;100000.00;4842973;29;20066;-45
2023/09/26 08:23:52;;;;;;;10.73;3.77;;;;;;;31.80;33.01;99994.63;4842815;29;20037;-45
2023/09/26 08:26:17;;;;;;;10.75;4.00;;;;;;;31.55;33.28;99998.09;4842546;29;20468;-44
2023/09/26 08:28:43;;;;;;;14.35;4.07;;;;;;;31.93;32.97;100004.50;4842817;29;20037;-43
2023/09/26 08:31:14;;;;;;;12.27;3.92;;;;;;;32.45;32.82;100001.13;4843117;29;20038;-44
2023/09/26 08:33:40;;;;;;;12.23;3.80;;;;;;;33.07;32.03;99990.00;4842611;29;20082;-41
2023/09/26 08:36:20;;;;;;;10.35;3.60;;;;;;;33.04;31.54;99994.28;4842607;29;20029;-42
2023/09/26 08:38:47;;;;;;;12.48;3.92;;;;;;;33.17;31.16;99994.25;4842829;29;20127;-43
2023/09/26 08:41:13;;;;;;;8.98;3.97;;;;;;;33.77;30.22;99983.31;4843770;29;20067;-45
2023/09/26 08:43:38;;;;;;;16.17;3.95;;;;;;;33.29;31.05;99986.75;4851065;29;20474;-42
2023/09/26 08:46:06;;;;;;;12.95;3.55;;;;;;;31.64;33.59;99984.22;4860094;29;20053;-43
2023/09/26 08:48:33;;;;;;;8.73;3.45;;;;;;;32.27;32.56;99977.72;4860037;29;20029;-41
2023/09/26 08:50:59;;;;;;;10.70;3.33;;;;;;;32.21;32.71;99977.13;4860482;29;20025;-45
2023/09/26 08:53:25;;;;;;;12.85;3.60;;;;;;;31.52;33.30;99987.75;4859050;29;20364;-42
2023/09/26 08:55:51;;;;;;;9.85;3.78;;;;;;;31.95;32.26;99980.19;4860235;29;20026;-44
2023/09/26 08:58:19;;;;;;;14.15;3.58;;;;;;;31.55;32.82;99989.06;4860100;29;20096;-42
2023/09/26 09:00:45;;;;;;;9.50;3.77;;;;;;;30.50;35.00;99977.97;4859747;29;20068;-46
2023/09/26 09:03:10;;;;;;;11.98;3.47;;;;;;;30.80;34.29;99979.56;4859701;29;20036;-43
2023/09/26 09:05:36;;;;;;;6.40;3.40;;;;;;;30.19;35.46;99979.88;4860409;29;20022;-46
2023/09/26 09:08:01;;;;;;;11.68;3.72;;;;;;;30.22;34.89;99978.44;4859874;29;20045;-45
2023/09/26 09:10:27;;;;;;;7.70;3.20;;;;;;;30.68;34.32;99979.50;4859515;29;20414;-40
2023/09/26 09:13:03;;;;;;;7.88;3.90;;;;;;;30.82;34.15;99978.44;4859934;29;20081;-43
2023/09/26 09:15:30;;;;;;;8.07;3.38;;;;;;;30.27;34.75;99969.19;4859973;29;20117;-45
2023/09/26 09:17:56;;;;;;;10.27;4.03;;;;;;;30.18;35.74;99959.06;4859383;29;20062;-45
2023/09/26 09:20:33;;;;;;;15.30;3.70;;;;;;;29.99;35.22;99953.19;4859366;29;20041;-44
2023/09/26 09:23:00;;;;;;;11.60;3.45;;;;;;;29.73;35.20;99962.31;4857864;29;20120;-42
2023/09/26 09:25:37;;;;;;;9.98;3.40;;;;;;;29.60;35.01;99952.31;4859308;29;20066;-45
2023/09/26 09:28:05;;;;;;;12.68;3.83;;;;;;;28.90;36.42;99962.47;4859110;29;20018;-42
2023/09/26 09:30:41;;;;;;;17.55;4.05;;;;;;;29.37;36.23;99959.94;4857120;29;20486;-45
2023/09/26 09:33:09;;;;;;;9.70;3.22;;;;;;;29.67;35.54;99963.59;4858939;29;20089;-43
2023/09/26 09:35:35;;;;;;;9.63;3.65;;;;;;;29.88;36.07;99960.16;4858520;29;20033;-42
2023/09/26 09:38:00;;;;;;;11.43;3.42;;;;;;;29.61;36.00;99957.47;4859411;29;20021;-48
2023/09/26 09:40:26;;;;;;;12.80;4.10;;;;;;;29.33;36.73;99948.81;4859308;29;20526;-45
2023/09/26 09:42:52;;;;;;;8.05;3.60;;;;;;;30.06;35.05;99952.66;4858741;29;20025;-43
2023/09/26 09:45:18;;;;;;;10.07;4.13;;;;;;;30.32;35.20;99958.06;4859248;29;20123;-41
2023/09/26 09:47:45;;;;;;;7.30;3.40;;;;;;;30.25;34.83;99950.31;4858631;29;20040;-44
2023/09/26 09:50:12;;;;;;;10.38;3.42;;;;;;;30.91;33.37;99954.50;4856185;29;20025;-44
2023/09/26 09:52:44;;;;;;;11.70;3.20;;;;;;;31.07;33.26;99947.25;4858611;29;20033;-45
2023/09/26 09:55:18;;;;;;;10.60;3.50;;;;;;;31.66;32.14;99939.91;4855877;29;20033;-47
2023/09/26 09:57:52;;;;;;;10.57;3.50;;;;;;;31.80;32.25;99942.34;4858771;29;20483;-46
2023/09/26 10:00:22;;;;;;;10.13;3.70;;;;;;;31.70;32.84;99929.81;4858504;29;20140;-42
2023/09/26 10:02:48;;;;;;;8.82;3.70;;;;;;;32.33;32.21;99935.06;4858902;29;20040;-44
2023/09/26 10:05:14;;;;;;;9.25;3.70;;;;;;;32.18;31.24;99930.22;4859209;29;20037;-43
2023/09/26 10:07:41;;;;;;;13.13;3.60;;;;;;;31.84;32.40;99929.50;4859258;29;20034;-43
2023/09/26 10:10:09;;;;;;;12.68;3.90;;;;;;;32.01;31.99;99929.28;4858969;29;20096;-46
2023/09/26 10:12:39;;;;;;;11.00;3.50;;;;;;;31.23;33.15;99936.44;4858766;29;20030;-44
2023/09/26 10:15:13;;;;;;;13.07;3.70;;;;;;;30.05;33.97;99938.16;4859072;29;20036;-44
2023/09/26 10:17:40;;;;;;;10.10;3.60;;;;;;;30.40;33.83;99938.78;4859012;29;20072;-42
2023/09/26 10:20:10;;;;;;;11.75;3.70;;;;;;;30.68;33.90;99923.78;4859569;29;20052;-43
2023/09/26 10:22:40;;;;;;;11.63;3.58;;;;;;;30.45;34.09;99928.78;4857798;29;20068;-43
2023/09/26 10:25:07;;;;;;;9.63;3.20;;;;;;;30.81;33.17;99925.47;4859407;29;20025;-42
2023/09/26 10:27:33;;;;;;;14.05;3.30;;;;;;;30.42;33.91;99929.44;4859027;29;20200;-42
2023/09/26 10:30:00;;;;;;;14.52;3.40;;;;;;;30.13;33.66;99925.53;4859038;29;20061;-43
2023/09/26 10:32:34;;;;;;;8.73;3.67;;;;;;;29.96;34.50;99918.97;4856440;29;20041;-45
2023/09/26 10:35:22;;;;;;;15.63;3.78;;;;;;;30.12;34.52;99912.94;4849545;29;20034;-42
2023/09/26 10:38:09;;;;;;;9.18;3.47;;;;;;;29.36;35.92;99909.78;4848511;29;20032;-46
2023/09/26 10:40:35;;;;;;;9.85;4.00;;;;;;;29.37;35.53;99905.91;4849840;29;20489;-44
2023/09/26 10:43:02;;;;;;;8.10;3.53;;;;;;;29.61;35.30;99905.38;4848260;29;20064;-43
2023/09/26 10:45:27;;;;;;;15.20;3.50;;;;;;;30.14;34.61;99918.88;4848656;29;20463;-42
2023/09/26 10:47:53;;;;;;;15.25;4.00;;;;;;;29.79;35.01;99913.56;4849869;29;20037;-42
2023/09/26 10:50:20;;;;;;;14.05;3.20;;;;;;;29.62;35.22;99911.66;4850663;29;20022;-44
2023/09/26 10:52:49;;;;;;;11.15;3.47;;;;;;;29.55;35.22;99914.09;4848945;29;20044;-44
2023/09/26 10:55:19;;;;;;;13.80;3.30;;;;;;;29.82;35.69;99900.00;4850127;29;20053;-41
2023/09/26 10:57:45;;;;;;;10.10;3.70;;;;;;;30.43;34.53;99898.13;4848961;29;20030;-43
2023/09/26 11:00:13;;;;;;;9.20;3.15;;;;;;;30.23;35.04;99894.16;4848412;29;20475;-44
2023/09/26 11:02:39;;;;;;;12.32;3.70;;;;;;;30.45;34.54;99898.59;4850017;29;20139;-42
2023/09/26 11:05:09;;;;;;;9.35;3.50;;;;;;;30.36;34.38;99890.41;4848628;29;20112;-42
2023/09/26 11:07:35;;;;;;;10.77;3.25;;;;;;;30.24;34.63;99893.03;4847597;29;20156;-43
2023/09/26 11:10:03;;;;;;;12.70;3.70;;;;;;;29.51;35.20;99896.69;4844601;29;20050;-42
2023/09/26 11:12:29;;;;;;;12.88;3.58;;;;;;;29.37;36.10;99896.88;4852455;29;20033;-43
2023/09/26 11:14:55;;;;;;;8.05;3.38;;;;;;;29.62;35.39;99893.28;4858521;29;20185;-42
2023/09/26 11:17:23;;;;;;;12.60;3.35;;;;;;;30.24;34.80;99899.31;4860152;29;20036;-43
2023/09/26 11:19:48;;;;;;;12.50;3.53;;;;;;;29.32;35.76;99886.09;4862150;29;20100;-41
2023/09/26 11:22:14;;;;;;;8.75;3.88;;;;;;;29.59;35.46;99885.72;4862568;29;20181;-42
2023/09/26 11:24:39;;;;;;;8.32;3.50;;;;;;;29.48;35.77;99880.91;4861922;29;20470;-42